Terminal Aerodrome Forecast
Issued by NWS Binghamton, NY

Home | Current Version | Previous Version | Text Only | Print | Product List | Glossary On
Versions: 1 2 3 4 5 6 7 8 9 10 11 12 13 14 15 16 17 18
000
FTUS41 KBGM 181120
TAFBGM
TAF
KBGM 181120Z 1812/1912 18010KT P6SM OVC130 WS020/21040KT
     FM181600 18012G20KT P6SM -RA OVC060
     FM181900 18011G19KT 3SM -RA BR OVC015
      TEMPO 1823/1903 2SM RA OVC008
     FM190300 18013KT 3SM -RA OVC008
     FM191100 26013G22KT 5SM -SHRA OVC010=

USA.gov is the U.S. government's official web portal to all federal, state and local government web resources and services.